createdAt,value
2018-12-04T00:02:10.870Z,32.80
2018-12-04T00:04:39.931Z,33.27
2018-12-04T00:07:08.983Z,31.70
2018-12-04T00:09:38.085Z,31.70
2018-12-04T00:12:07.247Z,30.03
2018-12-04T00:14:36.379Z,31.70
2018-12-04T00:17:05.499Z,31.50
2018-12-04T00:19:34.628Z,31.13
2018-12-04T00:22:03.765Z,30.90
2018-12-04T00:24:32.856Z,32.43
2018-12-04T00:27:01.987Z,34.97
2018-12-04T00:29:31.092Z,32.77
2018-12-04T00:32:00.316Z,33.37
2018-12-04T00:34:29.555Z,32.80
2018-12-04T00:36:58.602Z,31.47
2018-12-04T00:39:27.668Z,32.17
2018-12-04T00:41:56.803Z,30.60
2018-12-04T00:44:26.022Z,27.43
2018-12-04T00:46:55.141Z,25.83
2018-12-04T00:49:24.282Z,25.67
2018-12-04T00:51:53.486Z,27.37
2018-12-04T00:54:22.574Z,26.87
2018-12-04T00:56:51.823Z,27.43
2018-12-04T00:59:20.931Z,26.77
2018-12-04T01:01:50.136Z,27.83
2018-12-04T01:04:19.202Z,28.30
2018-12-04T01:06:48.298Z,27.93
2018-12-04T01:09:17.464Z,27.70
2018-12-04T01:11:46.611Z,29.30
2018-12-04T01:14:15.704Z,28.07
2018-12-04T01:16:44.807Z,26.90
2018-12-04T01:19:13.948Z,26.27
2018-12-04T01:21:43.001Z,25.17
2018-12-04T01:24:12.160Z,26.70
2018-12-04T01:26:41.231Z,24.87
2018-12-04T01:29:10.373Z,24.73
2018-12-04T01:31:39.478Z,23.93
2018-12-04T01:34:08.651Z,24.13
2018-12-04T01:36:37.780Z,24.07
2018-12-04T01:39:08.148Z,23.30
2018-12-04T01:41:37.308Z,23.77
2018-12-04T01:44:06.482Z,22.33
2018-12-04T01:46:35.517Z,23.73
2018-12-04T01:49:04.665Z,24.30
2018-12-04T01:51:33.719Z,25.90
2018-12-04T01:54:02.805Z,23.77
2018-12-04T01:56:31.997Z,24.07
2018-12-04T01:59:01.246Z,20.77
2018-12-04T02:01:30.327Z,23.83
2018-12-04T02:03:59.532Z,22.73
2018-12-04T02:06:28.724Z,23.60
2018-12-04T02:08:57.825Z,22.03
2018-12-04T02:11:26.837Z,21.57
2018-12-04T02:13:55.920Z,20.90
2018-12-04T02:16:25.110Z,20.03
2018-12-04T02:18:54.303Z,19.30
2018-12-04T02:21:23.404Z,19.17
2018-12-04T02:23:52.735Z,19.60
2018-12-04T02:26:21.795Z,20.90
2018-12-04T02:28:51.022Z,21.17
2018-12-04T02:31:20.127Z,21.27
2018-12-04T02:33:49.210Z,22.90
2018-12-04T02:36:18.256Z,23.37
2018-12-04T02:38:47.591Z,23.50
2018-12-04T02:41:16.944Z,21.10
2018-12-04T02:43:46.059Z,19.13
2018-12-04T02:46:15.693Z,17.97
2018-12-04T02:48:44.825Z,18.97
2018-12-04T02:51:14.064Z,17.53
2018-12-04T02:53:43.124Z,16.60
2018-12-04T02:56:12.152Z,19.10
2018-12-04T02:58:41.152Z,18.60
2018-12-04T03:01:10.340Z,19.97
2018-12-04T03:03:39.450Z,19.83
2018-12-04T03:06:08.536Z,20.43
2018-12-04T03:08:38.259Z,20.87
2018-12-04T03:11:07.305Z,21.23
2018-12-04T03:13:36.473Z,23.27
2018-12-04T03:16:06.015Z,23.60
2018-12-04T03:18:35.200Z,22.23
2018-12-04T03:21:04.500Z,22.90
2018-12-04T03:23:33.583Z,22.50
2018-12-04T03:26:02.620Z,21.23
2018-12-04T03:28:31.657Z,19.90
2018-12-04T03:31:00.732Z,21.67
2018-12-04T03:33:37.472Z,20.80
2018-12-04T03:36:07.156Z,19.23
2018-12-04T03:38:36.431Z,33.77
2018-12-04T03:41:05.592Z,42.37
2018-12-04T03:43:34.703Z,41.53
2018-12-04T03:46:03.720Z,47.33
2018-12-04T03:48:33.084Z,64.17
2018-12-04T03:51:02.617Z,50.73
2018-12-04T03:53:31.708Z,48.30
2018-12-04T03:56:00.868Z,36.73
2018-12-04T03:58:29.978Z,26.77
2018-12-04T04:00:59.205Z,21.80
2018-12-04T04:03:29.132Z,20.80
2018-12-04T04:05:58.191Z,19.30
2018-12-04T04:08:27.308Z,19.30
2018-12-04T04:10:56.343Z,20.40
2018-12-04T04:13:25.684Z,18.77
2018-12-04T04:15:54.716Z,18.90
2018-12-04T04:18:23.739Z,18.47
2018-12-04T04:20:52.817Z,17.67
2018-12-04T04:23:22.044Z,18.57
2018-12-04T04:25:51.127Z,20.83
2018-12-04T04:28:20.287Z,19.87
2018-12-04T04:30:49.284Z,20.10
2018-12-04T04:33:18.336Z,20.90
2018-12-04T04:35:48.049Z,20.23
2018-12-04T04:38:17.132Z,20.03
2018-12-04T04:40:46.190Z,23.10
2018-12-04T04:43:15.318Z,25.80
2018-12-04T04:45:44.450Z,26.53
2018-12-04T04:48:13.576Z,28.03
2018-12-04T04:50:43.062Z,26.03
2018-12-04T04:53:12.178Z,24.63
2018-12-04T04:55:41.231Z,29.30
2018-12-04T04:58:10.329Z,29.33
2018-12-04T05:00:39.465Z,48.33
2018-12-04T05:03:08.852Z,28.63
2018-12-04T05:05:38.581Z,25.13
2018-12-04T05:08:07.801Z,26.37
2018-12-04T05:10:36.919Z,26.93
2018-12-04T05:13:06.162Z,27.60
2018-12-04T05:15:35.461Z,26.90
2018-12-04T05:18:04.599Z,26.53
2018-12-04T05:20:34.189Z,28.50
2018-12-04T05:23:03.373Z,33.47
2018-12-04T05:25:32.728Z,29.00
2018-12-04T05:28:01.788Z,28.23
2018-12-04T05:30:30.824Z,30.77
2018-12-04T05:32:59.852Z,35.37
2018-12-04T05:35:29.375Z,35.40
2018-12-04T05:37:58.566Z,35.80
2018-12-04T05:40:27.589Z,35.73
2018-12-04T05:42:56.684Z,32.03
2018-12-04T05:45:25.783Z,28.27
2018-12-04T05:47:55.943Z,28.60
2018-12-04T05:50:25.071Z,28.37
2018-12-04T05:53:05.017Z,34.80
2018-12-04T05:55:34.615Z,22.77
2018-12-04T05:58:04.017Z,32.03
2018-12-04T06:00:33.087Z,29.10
2018-12-04T06:03:02.176Z,30.23
2018-12-04T06:05:31.374Z,32.20
2018-12-04T06:08:00.419Z,33.23
2018-12-04T06:10:29.540Z,42.73
2018-12-04T06:12:58.648Z,41.47
2018-12-04T06:15:27.673Z,40.83
2018-12-04T06:17:57.288Z,34.90
2018-12-04T06:20:26.502Z,36.23
2018-12-04T06:22:56.587Z,34.80
2018-12-04T06:25:26.257Z,43.73
2018-12-04T06:27:55.366Z,35.80
2018-12-04T06:30:24.408Z,31.40
2018-12-04T06:32:53.806Z,30.80
2018-12-04T06:35:23.045Z,30.00
2018-12-04T06:40:46.277Z,35.70
2018-12-04T06:43:15.704Z,33.03
2018-12-04T06:45:44.748Z,31.83
2018-12-04T06:51:00.455Z,39.73
2018-12-04T06:53:29.640Z,35.70
2018-12-04T06:55:59.024Z,32.90
2018-12-04T06:58:28.165Z,33.77
2018-12-04T07:00:58.293Z,29.50
2018-12-04T07:03:27.646Z,39.83
2018-12-04T07:05:57.324Z,34.07
2018-12-04T07:08:27.001Z,30.33
2018-12-04T07:10:57.293Z,30.53
2018-12-04T07:13:27.079Z,31.20
2018-12-04T07:15:57.213Z,32.43
2018-12-04T07:18:26.833Z,42.13
2018-12-04T07:20:56.316Z,44.40
2018-12-04T07:23:25.559Z,51.03
2018-12-04T07:25:54.658Z,40.90
2018-12-04T07:28:23.670Z,34.40
2018-12-04T07:30:52.723Z,36.23
2018-12-04T07:33:27.539Z,38.70
2018-12-04T07:35:56.668Z,38.70
2018-12-04T07:38:25.689Z,23.73
2018-12-04T07:40:54.866Z,24.37
2018-12-04T07:43:23.983Z,25.80
2018-12-04T07:45:53.318Z,25.83
2018-12-04T07:48:22.470Z,25.00
2018-12-04T07:50:51.569Z,25.17
2018-12-04T07:53:20.825Z,25.20
2018-12-04T07:55:50.069Z,27.03
2018-12-04T07:58:19.294Z,28.50
2018-12-04T08:00:48.349Z,29.77
2018-12-04T08:03:17.344Z,31.07
2018-12-04T08:05:46.389Z,34.63
2018-12-04T08:08:15.468Z,32.87
2018-12-04T08:10:44.516Z,33.80
2018-12-04T08:13:13.561Z,36.27
2018-12-04T08:15:42.644Z,37.63
2018-12-04T08:18:11.827Z,39.90
2018-12-04T08:20:41.111Z,42.33
2018-12-04T08:23:10.460Z,42.83
2018-12-04T08:25:39.778Z,45.90
2018-12-04T08:28:09.252Z,44.10
2018-12-04T08:30:38.690Z,50.57
2018-12-04T08:33:08.274Z,53.20
2018-12-04T08:35:37.677Z,51.73
2018-12-04T08:38:07.215Z,52.37
2018-12-04T08:40:36.447Z,49.77
2018-12-04T08:43:05.863Z,49.33
2018-12-04T08:45:35.412Z,47.50
2018-12-04T08:48:05.002Z,49.03
2018-12-04T08:50:34.383Z,50.53
2018-12-04T08:53:03.935Z,50.80
2018-12-04T08:55:33.338Z,50.57
2018-12-04T08:58:04.261Z,55.33
2018-12-04T09:00:33.590Z,56.30
2018-12-04T09:03:05.438Z,56.17
2018-12-04T09:05:35.864Z,57.00
2018-12-04T09:08:09.294Z,56.60
2018-12-04T09:10:35.577Z,58.73
2018-12-04T09:13:05.743Z,59.60
2018-12-04T09:15:35.758Z,60.97
2018-12-04T09:18:05.370Z,57.80
2018-12-04T09:20:34.685Z,59.03
2018-12-04T09:23:04.610Z,55.73
2018-12-04T09:25:34.388Z,58.47
2018-12-04T09:28:03.763Z,55.43
2018-12-04T09:30:33.522Z,57.77
2018-12-04T09:33:02.677Z,57.53
2018-12-04T09:35:32.137Z,56.80
2018-12-04T09:38:02.167Z,57.23
2018-12-04T09:40:32.094Z,51.17
2018-12-04T09:43:04.189Z,48.30
2018-12-04T09:45:41.319Z,49.07
2018-12-04T09:48:10.635Z,44.53
2018-12-04T09:50:40.125Z,50.07
2018-12-04T09:53:09.358Z,48.43
2018-12-04T09:55:38.615Z,47.67
2018-12-04T09:58:07.776Z,46.70
2018-12-04T10:00:36.926Z,46.53
2018-12-04T10:03:06.827Z,45.73
2018-12-04T10:05:36.167Z,45.30
2018-12-04T10:08:05.889Z,48.67
2018-12-04T10:10:35.179Z,42.83
2018-12-04T10:13:04.819Z,43.40
2018-12-04T10:15:34.254Z,43.27
2018-12-04T10:18:03.611Z,43.57
2018-12-04T10:20:32.836Z,43.30
2018-12-04T10:23:02.155Z,51.23
2018-12-04T10:25:31.602Z,41.80
2018-12-04T10:28:01.102Z,36.87
2018-12-04T10:30:30.398Z,36.03
2018-12-04T10:32:59.997Z,37.50
2018-12-04T10:35:29.523Z,42.20
2018-12-04T10:38:00.486Z,41.77
2018-12-04T10:40:29.049Z,41.57
2018-12-04T10:42:58.839Z,59.47
2018-12-04T10:45:28.612Z,44.30
2018-12-04T10:47:57.932Z,41.67
2018-12-04T10:50:27.651Z,43.03
2018-12-04T10:52:57.278Z,45.37
2018-12-04T10:55:26.573Z,45.53
2018-12-04T10:57:56.171Z,39.93
2018-12-04T11:00:32.511Z,41.20
2018-12-04T11:03:06.848Z,45.93
2018-12-04T11:05:36.508Z,43.90
2018-12-04T11:08:05.837Z,47.27
2018-12-04T11:10:35.112Z,46.93
2018-12-04T11:13:04.527Z,47.67
2018-12-04T11:15:33.943Z,47.70
2018-12-04T11:18:02.963Z,47.73
2018-12-04T11:20:32.140Z,45.10
2018-12-04T11:23:01.220Z,47.33
2018-12-04T11:25:30.436Z,48.20
2018-12-04T11:27:59.682Z,48.40
2018-12-04T11:30:28.939Z,46.93
2018-12-04T11:32:58.139Z,47.33
2018-12-04T11:35:27.432Z,46.30
2018-12-04T11:37:56.935Z,46.73
2018-12-04T11:40:26.334Z,44.17
2018-12-04T11:42:55.793Z,43.63
2018-12-04T11:45:25.328Z,44.17
2018-12-04T11:47:55.986Z,43.63
2018-12-04T11:50:25.727Z,38.23
2018-12-04T11:52:55.437Z,37.27
2018-12-04T11:55:24.716Z,39.30
2018-12-04T11:57:54.040Z,35.83
2018-12-04T12:00:37.364Z,34.77
2018-12-04T12:03:06.877Z,33.70
2018-12-04T12:05:37.659Z,31.63
2018-12-04T12:08:07.370Z,33.83
2018-12-04T12:10:37.349Z,34.63
2018-12-04T12:13:07.362Z,36.17
2018-12-04T12:15:37.273Z,35.93
2018-12-04T12:18:06.460Z,36.00
2018-12-04T12:20:36.093Z,44.03
2018-12-04T12:23:06.060Z,37.47
2018-12-04T12:25:35.901Z,36.80
2018-12-04T12:28:05.643Z,35.80
2018-12-04T12:30:35.993Z,34.43
2018-12-04T12:33:06.869Z,35.17
2018-12-04T12:35:36.602Z,35.63
2018-12-04T12:38:06.522Z,35.90
2018-12-04T12:40:36.702Z,35.80
2018-12-04T12:43:06.591Z,35.40
2018-12-04T12:45:36.455Z,33.40
2018-12-04T12:48:07.127Z,32.87
2018-12-04T12:50:37.023Z,32.97
2018-12-04T12:53:06.887Z,33.93
2018-12-04T12:55:36.511Z,33.43
2018-12-04T12:58:06.966Z,34.40
2018-12-04T13:00:36.863Z,35.67
2018-12-04T13:03:07.672Z,36.53
2018-12-04T13:05:37.374Z,35.70
2018-12-04T13:08:06.516Z,35.47
2018-12-04T13:10:36.299Z,36.80
2018-12-04T13:13:06.793Z,37.13
2018-12-04T13:15:36.748Z,39.53
2018-12-04T13:18:06.280Z,38.93
2018-12-04T13:20:36.162Z,37.37
2018-12-04T13:23:05.483Z,36.23
2018-12-04T13:25:34.580Z,37.47
2018-12-04T13:28:03.609Z,38.13
2018-12-04T13:30:32.802Z,37.20
2018-12-04T13:33:01.915Z,34.17
2018-12-04T13:35:30.988Z,34.67
2018-12-04T13:38:00.040Z,34.10
2018-12-04T13:40:29.284Z,35.60
2018-12-04T13:42:58.448Z,35.23
2018-12-04T13:45:27.481Z,36.23
2018-12-04T13:48:00.707Z,37.53
2018-12-04T13:50:25.754Z,36.67
2018-12-04T13:52:54.853Z,36.33
2018-12-04T13:55:24.020Z,36.37
2018-12-04T13:57:53.283Z,35.63
2018-12-04T14:00:22.519Z,36.63
2018-12-04T14:02:51.777Z,36.47
2018-12-04T14:05:21.018Z,37.30
2018-12-04T14:07:50.286Z,36.63
2018-12-04T14:10:19.656Z,36.67
2018-12-04T14:12:48.867Z,37.57
2018-12-04T14:15:18.127Z,37.57
2018-12-04T14:17:47.525Z,35.30
2018-12-04T14:20:16.810Z,38.10
2018-12-04T14:22:46.084Z,37.67
2018-12-04T14:25:15.396Z,37.47
2018-12-04T14:27:48.946Z,38.37
2018-12-04T14:30:14.260Z,38.47
2018-12-04T14:32:43.890Z,37.67
2018-12-04T14:35:14.131Z,38.27
2018-12-04T14:37:43.582Z,38.17
2018-12-04T14:40:13.172Z,37.93
2018-12-04T14:42:42.662Z,37.37
2018-12-04T14:45:12.404Z,40.07
2018-12-04T14:47:42.298Z,44.17
2018-12-04T14:50:12.155Z,40.40
2018-12-04T14:52:42.600Z,39.60
2018-12-04T14:55:12.280Z,42.30
2018-12-04T14:57:42.124Z,42.10
2018-12-04T15:00:12.732Z,50.77
2018-12-04T15:02:42.549Z,69.60
2018-12-04T15:05:12.479Z,107.23
2018-12-04T15:07:41.903Z,103.77
2018-12-04T15:10:12.242Z,107.30
2018-12-04T15:12:41.756Z,114.10
2018-12-04T15:15:11.160Z,112.23
2018-12-04T15:17:40.921Z,127.63
2018-12-04T15:20:10.592Z,118.87
2018-12-04T15:22:40.008Z,103.10
2018-12-04T15:25:09.524Z,90.40
2018-12-04T15:27:38.880Z,77.97
2018-12-04T15:30:08.556Z,90.40
2018-12-04T15:32:37.910Z,92.87
2018-12-04T15:35:07.639Z,92.07
2018-12-04T15:37:37.153Z,93.90
2018-12-04T15:40:07.714Z,80.87
2018-12-04T15:42:37.177Z,73.97
2018-12-04T15:45:07.360Z,71.13
2018-12-04T15:47:36.919Z,61.13
2018-12-04T15:50:07.506Z,50.13
2018-12-04T15:52:37.012Z,46.90
2018-12-04T15:55:06.955Z,45.70
2018-12-04T15:57:36.526Z,47.23
2018-12-04T16:00:07.905Z,47.13
2018-12-04T16:02:37.242Z,47.07
2018-12-04T16:05:08.759Z,44.53
2018-12-04T16:07:38.550Z,48.67
2018-12-04T16:10:12.214Z,53.47
2018-12-04T16:12:42.196Z,54.30
2018-12-04T16:15:12.619Z,54.57
2018-12-04T16:17:42.803Z,55.03
2018-12-04T16:20:13.047Z,59.53
2018-12-04T16:22:43.464Z,74.83
2018-12-04T16:25:13.201Z,56.10
2018-12-04T16:27:44.156Z,48.07
2018-12-04T16:30:14.131Z,45.80
2018-12-04T16:32:43.624Z,44.73
2018-12-04T16:35:13.118Z,48.03
2018-12-04T16:37:43.337Z,36.73
2018-12-04T16:40:13.225Z,49.70
2018-12-04T16:42:43.622Z,45.33
2018-12-04T16:45:13.655Z,46.83
2018-12-04T16:47:43.625Z,46.77
2018-12-04T16:50:14.117Z,45.97
2018-12-04T16:52:44.282Z,47.17
2018-12-04T16:55:14.627Z,50.10
2018-12-04T16:57:44.532Z,47.97
2018-12-04T17:00:14.753Z,50.40
2018-12-04T17:02:44.472Z,53.80
2018-12-04T17:05:14.286Z,53.10
2018-12-04T17:07:44.517Z,45.50
2018-12-04T17:10:14.700Z,42.50
2018-12-04T17:12:44.528Z,42.53
2018-12-04T17:15:14.335Z,43.83
2018-12-04T17:17:44.076Z,40.93
2018-12-04T17:20:13.818Z,43.17
2018-12-04T17:22:43.425Z,42.13
2018-12-04T17:25:13.121Z,43.47
2018-12-04T17:27:42.939Z,43.47
2018-12-04T17:30:12.869Z,44.13
2018-12-04T17:32:42.517Z,45.70
2018-12-04T17:35:11.962Z,48.10
2018-12-04T17:37:41.497Z,56.40
2018-12-04T17:40:11.018Z,66.90
2018-12-04T17:42:40.511Z,82.97
2018-12-04T17:45:10.605Z,67.60
2018-12-04T17:47:39.996Z,66.20
2018-12-04T17:50:10.694Z,62.07
2018-12-04T17:52:40.160Z,63.07
2018-12-04T17:55:09.765Z,65.40
2018-12-04T17:57:39.156Z,63.53
2018-12-04T18:00:09.456Z,55.40
2018-12-04T18:02:38.860Z,59.20
2018-12-04T18:05:08.350Z,66.47
2018-12-04T18:07:37.927Z,47.87
2018-12-04T18:10:08.760Z,81.33
2018-12-04T18:12:38.475Z,82.37
2018-12-04T18:15:08.985Z,91.27
2018-12-04T18:17:38.572Z,92.20
2018-12-04T18:20:08.380Z,93.67
2018-12-04T18:22:38.131Z,96.10
2018-12-04T18:25:07.737Z,111.50
2018-12-04T18:27:37.782Z,115.10
2018-12-04T18:30:08.048Z,116.63
2018-12-04T18:32:37.706Z,118.07
2018-12-04T18:35:07.674Z,97.13
2018-12-04T18:37:37.171Z,80.60
2018-12-04T18:40:07.342Z,78.40
2018-12-04T18:42:36.848Z,71.73
2018-12-04T18:45:07.795Z,68.63
2018-12-04T18:47:37.362Z,67.57
2018-12-04T18:50:09.197Z,66.63
2018-12-04T18:52:38.758Z,71.73
2018-12-04T18:55:08.731Z,81.27
2018-12-04T18:57:38.273Z,84.03
2018-12-04T19:00:09.166Z,72.97
2018-12-04T19:02:38.508Z,67.60
2018-12-04T19:05:07.868Z,64.33
2018-12-04T19:07:37.273Z,63.77
2018-12-04T19:10:06.848Z,64.87
2018-12-04T19:12:36.167Z,60.47
2018-12-04T19:15:05.855Z,60.33
2018-12-04T19:17:35.346Z,61.63
2018-12-04T19:20:05.076Z,60.17
2018-12-04T19:22:34.462Z,61.90
2018-12-04T19:25:03.781Z,66.90
2018-12-04T19:27:33.198Z,68.07
2018-12-04T19:30:02.925Z,66.13
2018-12-04T19:32:32.300Z,65.47
2018-12-04T19:35:02.104Z,63.33
2018-12-04T19:37:31.413Z,56.43
2018-12-04T19:40:00.680Z,53.50
2018-12-04T19:42:29.829Z,49.37
2018-12-04T19:44:59.023Z,45.63
2018-12-04T19:47:28.080Z,47.27
2018-12-04T19:49:57.121Z,47.00
2018-12-04T19:52:26.502Z,44.90
2018-12-04T19:54:55.644Z,46.93
2018-12-04T19:57:24.680Z,47.13
2018-12-04T19:59:53.764Z,47.73
2018-12-04T20:02:22.873Z,46.10
2018-12-04T20:04:51.864Z,47.97
2018-12-04T20:07:20.942Z,42.93
2018-12-04T20:09:50.100Z,43.67
2018-12-04T20:12:19.152Z,44.67
2018-12-04T20:14:51.190Z,47.60
2018-12-04T20:17:28.419Z,49.87
2018-12-04T20:20:00.452Z,51.90
2018-12-04T20:22:31.759Z,51.53
2018-12-04T20:25:03.951Z,54.00
2018-12-04T20:27:35.303Z,55.57
2018-12-04T20:30:09.310Z,60.10
2018-12-04T20:32:39.074Z,58.60
2018-12-04T20:35:09.613Z,57.60
2018-12-04T20:37:39.666Z,59.50
2018-12-04T20:40:09.453Z,60.60
2018-12-04T20:42:39.416Z,61.27
2018-12-04T20:45:09.261Z,64.37
2018-12-04T20:47:38.736Z,59.50
2018-12-04T20:50:09.357Z,56.67
2018-12-04T20:52:39.269Z,56.77
2018-12-04T20:55:09.313Z,61.53
2018-12-04T20:57:38.517Z,64.03
2018-12-04T21:00:12.827Z,71.37
2018-12-04T21:02:43.327Z,74.13
2018-12-04T21:05:15.142Z,72.57
2018-12-04T21:07:47.086Z,72.93
2018-12-04T21:10:17.326Z,73.43
2018-12-04T21:12:48.837Z,67.73
2018-12-04T21:15:18.932Z,64.67
2018-12-04T21:17:49.794Z,62.27
2018-12-04T21:20:19.951Z,57.63
2018-12-04T21:22:51.204Z,55.60
2018-12-04T21:25:22.318Z,52.53
2018-12-04T21:27:59.019Z,51.63
2018-12-04T21:30:33.222Z,51.80
2018-12-04T21:33:07.592Z,52.43
2018-12-04T21:35:44.282Z,52.33
2018-12-04T21:38:24.118Z,52.40
2018-12-04T21:41:06.064Z,56.77
2018-12-04T21:43:40.553Z,54.03
2018-12-04T21:46:18.004Z,55.47
2018-12-04T21:48:48.301Z,55.90
2018-12-04T21:51:18.690Z,54.80
2018-12-04T21:53:48.420Z,51.27
2018-12-04T21:56:19.347Z,46.70
2018-12-04T21:58:50.342Z,42.20
2018-12-04T22:01:23.048Z,39.83
2018-12-04T22:03:53.719Z,33.77
2018-12-04T22:06:24.938Z,32.07
2018-12-04T22:08:57.367Z,28.03
2018-12-04T22:11:27.078Z,27.90
2018-12-04T22:13:59.018Z,26.33
2018-12-04T22:16:28.812Z,25.80
2018-12-04T22:18:58.891Z,27.50
2018-12-04T22:21:28.338Z,30.83
2018-12-04T22:23:57.751Z,31.17
2018-12-04T22:26:27.367Z,32.90
2018-12-04T22:28:57.112Z,32.90
2018-12-04T22:31:26.973Z,34.83
2018-12-04T22:33:56.694Z,34.63
2018-12-04T22:36:26.585Z,37.10
2018-12-04T22:38:56.100Z,35.40
2018-12-04T22:41:25.781Z,35.50
2018-12-04T22:43:55.256Z,38.67
2018-12-04T22:46:24.886Z,41.43
2018-12-04T22:48:54.314Z,40.40
2018-12-04T22:51:23.662Z,41.67
2018-12-04T22:53:53.174Z,47.07
2018-12-04T22:56:23.161Z,46.07
2018-12-04T22:58:52.820Z,43.10
2018-12-04T23:01:33.081Z,44.80
2018-12-04T23:04:02.608Z,47.60
2018-12-04T23:06:32.097Z,49.60
2018-12-04T23:09:01.488Z,49.90
2018-12-04T23:11:31.027Z,47.47
2018-12-04T23:14:00.213Z,48.53
2018-12-04T23:16:29.815Z,50.83
2018-12-04T23:18:59.808Z,48.63
2018-12-04T23:21:29.370Z,49.60
2018-12-04T23:23:58.610Z,47.53
2018-12-04T23:26:27.953Z,44.80
2018-12-04T23:28:57.332Z,45.67
2018-12-04T23:31:26.685Z,45.33
2018-12-04T23:33:55.980Z,41.97
2018-12-04T23:36:25.285Z,41.70
2018-12-04T23:38:54.469Z,38.70
2018-12-04T23:41:24.036Z,36.17
2018-12-04T23:43:53.363Z,37.70
2018-12-04T23:46:22.847Z,34.57
2018-12-04T23:48:52.220Z,32.63
2018-12-04T23:51:21.464Z,32.90
2018-12-04T23:53:50.771Z,32.43
2018-12-04T23:56:20.197Z,32.33
2018-12-04T23:58:49.558Z,32.67
